Aérodrome :
LOGIN :

S'inscrire | Disclaimer

   EN    FR    IT 

 










Légende :    VFR   VFR Marginal   IFR   IFR Intensif   IFR Très Intensif
Visi : 
Plafond : 
>= 8 km
>= 3000ft
5 à 8 km
1000 à 3000 ft
1500m à 5 km
500 à 1000 ft
800 à 1500m
200 à 500 ft
< 800m
< 200 ft
Symboles :   Orages  Brouillard  Fortes neiges  Fortes précipitations  Vent > 20 kt
SIGMETs :   Divers  Orages  Givrage  Turbulence  Onde Orograph.  Cendres Volcan.







- Altitude de l'aérodrome : 37 ft
- Code IATA : HLY


EGOV - RAF Valley

DERNIER METAR :
  • 220650Z 19020KT 9999 BKN007 BKN017 17/16 Q1016 BECMG BKN005 RMK GRN BECMG YLO1

METARs EXPIRÉS :
  • 220621Z 20025KT 9999 BKN007 BKN016 17/16 Q1016 BECMG BKN005 RMK GRN BECMG YLO1
  • 220550Z 19023KT 9999 SCT007 SCT180 17/16 Q1015 TEMPO FEW007 RMK GRN TEMPO BLU
  • 220450Z AUTO 19023KT 5000 BR BKN003/// BKN015/// 17/16 Q1015

TAF TAF EGOV
Valide du 22 à 06h jusqu'au 22 à 15h UTC


220555Z 2206/2215 19021G31KT 9999 BKN007
TEMPO 2206/2207 FEW007
BECMG 2207/2210 BKN005
PROB40
TEMPO 2207/2215 FEW005
PROB30
TEMPO 2209/2215 3000 -DZ BKN004
Pas de NOTAMs connus pour ce terrain.
1 SIGMET publié pour la FIR London (EGTT) :
 
Onde orographique forte
EGTT SIGMET 02 VALID 220600/221000 EGRR
EGTT LONDON FIR SEV MTW FCST WI N5500 E00140 - N5224 W00120 - N5221 W00530 - N5500 W00530 - N5500 E00140 FL040/240 MOV N 05KT NC=



MET'MAP, la Météo Aéronautique d'un coup d'oeil ! - Copyright ORBIFLY Décembre 2007 - Disclaimer

ORBIFLY MET'MAP TEAM :

Programmation & Développement : Alexandra Zaïnal
Conception & Développement : Baudouin d'Aumeries
Co-Programmation & Développement : Marc-Olivier Méhu
Soutien technique & logistique : Manuel Goepfert

Contact : metmap@orbifly.com




SOURCES & CREDITS :

   NOAA